Time;durP1;ratioP1;P1;durP2;ratioP2;P2;SDS_P1;SDS_P2;PMS_P1;PMS_P2;Temp;Humidity;BMP_temperature;BMP_pressure;BME280_temperature;BME280_humidity;BME280_pressure;Samples;Min_cycle;Max_cycle;Signal;HPM_P1;HPM_P2
2022/09/18 00:00:43;;;;;;;3.47;1.23;;;10.80;99.90;;;;;;5095951;28;20429;-83
2022/09/18 00:03:10;;;;;;;1.45;0.90;;;10.80;99.90;;;;;;5095017;28;20115;-81
2022/09/18 00:05:37;;;;;;;3.97;1.50;;;10.80;99.90;;;;;;5096250;28;20028;-82
2022/09/18 00:08:04;;;;;;;2.30;1.27;;;10.80;99.90;;;;;;5095814;28;20035;-82
2022/09/18 00:10:29;;;;;;;4.25;1.40;;;10.80;99.90;;;;;;5096058;28;20062;-83
2022/09/18 00:12:55;;;;;;;2.35;1.27;;;10.80;99.90;;;;;;5094804;28;20386;-82
2022/09/18 00:15:21;;;;;;;2.83;1.90;;;10.80;99.90;;;;;;5096022;28;20036;-83
2022/09/18 00:17:47;;;;;;;4.97;1.75;;;10.70;99.90;;;;;;5096404;28;20027;-82
2022/09/18 00:20:13;;;;;;;3.88;1.80;;;10.90;99.90;;;;;;5096037;28;20028;-81
2022/09/18 00:22:39;;;;;;;4.63;2.05;;;10.80;99.90;;;;;;5095839;28;20047;-80
2022/09/18 00:25:07;;;;;;;3.58;1.42;;;10.80;99.90;;;;;;5094758;28;20497;-82
2022/09/18 00:27:33;;;;;;;2.42;1.20;;;10.90;99.90;;;;;;5094661;28;20115;-80
2022/09/18 00:29:59;;;;;;;3.35;1.38;;;10.80;99.90;;;;;;5095383;28;20352;-82
2022/09/18 00:32:25;;;;;;;5.75;1.63;;;10.90;99.90;;;;;;5094633;28;20080;-82
2022/09/18 00:34:51;;;;;;;3.30;1.52;;;10.90;99.90;;;;;;5095836;28;20055;-80
2022/09/18 00:37:16;;;;;;;3.88;1.30;;;10.90;99.90;;;;;;5095907;28;20032;-81
2022/09/18 00:39:42;;;;;;;3.63;1.20;;;11.00;99.90;;;;;;5095458;28;20094;-81
2022/09/18 00:42:12;;;;;;;2.20;1.45;;;10.90;99.90;;;;;;5095550;28;20099;-80
2022/09/18 00:44:41;;;;;;;2.92;1.63;;;11.00;99.90;;;;;;5095227;28;20024;-81
2022/09/18 00:47:09;;;;;;;3.25;1.63;;;11.00;99.90;;;;;;5095476;28;20028;-83
2022/09/18 00:49:44;;;;;;;2.08;1.30;;;11.00;99.90;;;;;;5093968;28;20024;-81
2022/09/18 00:52:13;;;;;;;4.43;1.30;;;11.00;99.90;;;;;;5094271;28;20035;-81
2022/09/18 00:54:47;;;;;;;3.42;1.33;;;11.00;99.90;;;;;;5095023;28;20024;-79
2022/09/18 00:57:28;;;;;;;3.20;1.77;;;11.00;99.90;;;;;;5094127;28;20020;-81
2022/09/18 00:59:54;;;;;;;2.22;1.23;;;11.00;99.90;;;;;;5095639;28;20034;-79
2022/09/18 01:02:20;;;;;;;6.30;2.10;;;11.10;99.90;;;;;;5093387;28;20031;-84
2022/09/18 01:04:46;;;;;;;5.30;2.10;;;11.10;99.90;;;;;;5094961;28;20375;-83
2022/09/18 01:07:43;;;;;;;2.75;1.48;;;11.10;99.90;;;;;;5087542;28;20028;-81
2022/09/18 01:10:33;;;;;;;1.77;1.27;;;11.10;99.90;;;;;;5091078;28;20020;-82
2022/09/18 01:13:29;;;;;;;5.15;1.40;;;11.10;99.90;;;;;;5098646;28;20029;-83
2022/09/18 01:16:27;;;;;;;3.67;1.27;;;11.10;99.90;;;;;;5088667;28;20035;-81
2022/09/18 01:18:56;;;;;;;4.32;1.23;;;11.10;99.90;;;;;;5087423;28;20036;-82
2022/09/18 01:21:49;;;;;;;2.08;1.17;;;11.10;99.90;;;;;;5094321;28;20093;-79
2022/09/18 01:24:44;;;;;;;4.10;1.65;;;11.10;99.90;;;;;;5092741;28;20070;-82
2022/09/18 01:27:29;;;;;;;2.40;1.30;;;11.10;99.90;;;;;;5092768;28;20162;-80
2022/09/18 01:30:04;;;;;;;4.13;1.17;;;11.10;99.90;;;;;;5086764;28;20020;-81
2022/09/18 01:32:39;;;;;;;3.75;1.25;;;11.10;99.90;;;;;;5093993;28;20524;-81
2022/09/18 01:35:14;;;;;;;6.43;1.40;;;11.10;99.90;;;;;;5094028;28;20028;-80
2022/09/18 01:37:55;;;;;;;3.63;1.15;;;11.10;99.90;;;;;;5093570;28;20483;-81
2022/09/18 01:40:32;;;;;;;3.83;1.25;;;11.10;99.90;;;;;;5088040;28;20075;-79
2022/09/18 01:43:01;;;;;;;2.28;1.20;;;11.10;99.90;;;;;;5088501;28;20103;-81
2022/09/18 01:45:32;;;;;;;3.60;1.40;;;11.10;99.90;;;;;;5093652;28;20024;-82
2022/09/18 01:48:28;;;;;;;4.83;1.23;;;11.10;99.90;;;;;;5093739;28;20089;-80
2022/09/18 01:51:11;;;;;;;2.10;1.38;;;11.10;99.90;;;;;;5089447;28;20314;-81
2022/09/18 01:53:41;;;;;;;3.40;1.42;;;11.00;99.90;;;;;;5093208;28;20040;-80
2022/09/18 01:56:15;;;;;;;3.65;1.40;;;11.00;99.90;;;;;;5101783;28;20543;-82
2022/09/18 01:58:42;;;;;;;2.85;1.50;;;11.00;99.90;;;;;;5093271;28;20038;-80
2022/09/18 02:01:14;;;;;;;2.03;1.38;;;11.00;99.90;;;;;;5092992;28;20397;-81
2022/09/18 02:03:48;;;;;;;2.03;1.70;;;11.00;99.90;;;;;;5096067;28;20490;-82
2022/09/18 02:06:28;;;;;;;5.88;1.40;;;10.90;99.90;;;;;;5093697;28;20040;-81
2022/09/18 02:08:56;;;;;;;4.03;1.35;;;11.00;99.90;;;;;;5087931;28;20081;-82
2022/09/18 02:11:23;;;;;;;6.65;1.30;;;11.00;99.90;;;;;;5092901;28;20039;-79
2022/09/18 02:14:04;;;;;;;3.72;1.48;;;11.00;99.90;;;;;;5091883;28;20085;-82
2022/09/18 02:16:40;;;;;;;2.70;1.10;;;11.00;99.90;;;;;;5087121;28;20085;-82
2022/09/18 02:19:41;;;;;;;5.80;1.50;;;11.00;99.90;;;;;;5085480;28;20032;-81
2022/09/18 02:22:11;;;;;;;5.43;1.30;;;11.00;99.90;;;;;;5087038;28;20441;-82
2022/09/18 02:24:39;;;;;;;2.40;1.08;;;11.00;99.90;;;;;;5092947;28;20103;-80
2022/09/18 02:27:08;;;;;;;2.65;1.35;;;11.00;99.90;;;;;;5092845;28;20047;-82
2022/09/18 02:29:35;;;;;;;4.13;1.80;;;11.00;99.90;;;;;;5091605;28;20031;-80
2022/09/18 02:32:02;;;;;;;5.35;1.27;;;11.00;99.90;;;;;;5101080;28;20094;-82
2022/09/18 02:34:29;;;;;;;4.20;1.30;;;11.00;99.90;;;;;;5091663;28;20116;-81
2022/09/18 02:37:20;;;;;;;3.92;1.35;;;11.00;99.90;;;;;;5092798;28;20024;-80
2022/09/18 02:40:16;;;;;;;4.65;1.60;;;11.00;99.90;;;;;;5086323;28;20048;-80
2022/09/18 02:43:03;;;;;;;6.18;1.20;;;11.00;99.90;;;;;;5091523;28;20752;-83
2022/09/18 02:45:44;;;;;;;4.95;0.90;;;10.90;99.90;;;;;;5092792;28;20534;-80
2022/09/18 02:48:16;;;;;;;2.40;1.10;;;11.00;99.90;;;;;;5093038;28;20471;-81
2022/09/18 02:51:00;;;;;;;3.58;1.00;;;11.00;99.90;;;;;;5092735;28;20091;-81
2022/09/18 02:53:44;;;;;;;4.55;1.60;;;10.90;99.90;;;;;;5092801;28;20455;-80
2022/09/18 02:56:21;;;;;;;4.30;1.55;;;10.90;99.90;;;;;;5086925;28;20024;-80
2022/09/18 02:59:13;;;;;;;6.70;1.20;;;10.90;99.90;;;;;;5093988;28;20450;-82
2022/09/18 03:01:41;;;;;;;;;;;10.90;99.90;;;;;;5093970;28;20117;-84
2022/09/18 03:04:10;;;;;;;3.15;1.00;;;10.90;99.90;;;;;;5092950;28;20366;-81
2022/09/18 03:06:36;;;;;;;3.60;1.55;;;10.80;99.90;;;;;;5092399;28;20032;-80
2022/09/18 03:09:02;;;;;;;4.75;1.17;;;10.80;99.90;;;;;;5092314;28;20531;-80
2022/09/18 03:11:28;;;;;;;6.78;1.42;;;10.70;99.90;;;;;;5093333;28;20028;-83
2022/09/18 03:13:54;;;;;;;5.75;1.58;;;10.70;99.90;;;;;;5092796;28;20492;-82
2022/09/18 03:16:20;;;;;;;5.85;1.38;;;10.70;99.90;;;;;;5092700;28;20103;-80
2022/09/18 03:18:46;;;;;;;5.70;1.45;;;10.70;99.90;;;;;;5092485;28;20027;-79
2022/09/18 03:21:12;;;;;;;2.40;1.17;;;10.70;99.90;;;;;;5092803;28;20056;-81
2022/09/18 03:23:38;;;;;;;3.03;1.20;;;10.60;99.90;;;;;;5092336;28;20067;-82
2022/09/18 03:26:03;;;;;;;3.67;1.35;;;10.60;99.90;;;;;;5094655;28;20031;-81
2022/09/18 03:28:32;;;;;;;3.60;1.73;;;10.60;99.90;;;;;;5095903;28;20035;-79
2022/09/18 03:30:58;;;;;;;2.00;1.08;;;10.60;99.90;;;;;;5097970;28;20344;-81
2022/09/18 03:33:24;;;;;;;2.42;0.80;;;10.60;99.90;;;;;;5095988;28;20527;-81
2022/09/18 03:35:49;;;;;;;2.35;1.08;;;10.60;99.90;;;;;;5096344;28;20024;-80
2022/09/18 03:38:15;;;;;;;5.13;1.40;;;10.60;99.90;;;;;;5104656;28;20036;-80
2022/09/18 03:40:45;;;;;;;3.08;1.23;;;10.50;99.90;;;;;;5098221;28;20494;-81
2022/09/18 03:43:11;;;;;;;5.95;1.33;;;10.50;99.90;;;;;;5095524;28;20030;-80
2022/09/18 03:45:36;;;;;;;6.60;1.42;;;10.50;99.90;;;;;;5095193;28;20118;-80
2022/09/18 03:48:03;;;;;;;2.17;1.30;;;10.50;99.90;;;;;;5094770;28;20478;-81
2022/09/18 03:50:29;;;;;;;2.15;1.27;;;10.50;99.90;;;;;;5095922;28;20097;-80
2022/09/18 03:52:55;;;;;;;4.53;1.23;;;10.40;99.90;;;;;;5095113;28;20032;-81
2022/09/18 03:55:21;;;;;;;3.00;1.38;;;10.40;99.90;;;;;;5095698;28;20101;-81
2022/09/18 03:57:49;;;;;;;2.72;1.13;;;10.40;99.90;;;;;;5096050;28;20074;-81
2022/09/18 04:00:16;;;;;;;4.78;1.75;;;10.40;99.90;;;;;;5095121;28;20028;-80
2022/09/18 04:02:42;;;;;;;11.25;1.40;;;10.40;99.90;;;;;;5103832;28;20024;-82
2022/09/18 04:05:08;;;;;;;3.00;1.50;;;10.40;99.90;;;;;;5095939;28;20058;-82
2022/09/18 04:07:34;;;;;;;5.00;1.55;;;10.40;99.90;;;;;;5095593;28;20036;-80
2022/09/18 04:10:00;;;;;;;3.63;1.30;;;10.40;99.90;;;;;;5099927;28;20024;-81
2022/09/18 04:12:26;;;;;;;4.78;1.70;;;10.40;99.90;;;;;;5092397;28;20036;-81
2022/09/18 04:14:51;;;;;;;7.10;2.25;;;10.50;99.90;;;;;;5095404;28;20076;-83
2022/09/18 04:17:17;;;;;;;4.75;2.35;;;10.50;99.90;;;;;;5095465;28;20149;-81
2022/09/18 04:19:43;;;;;;;5.10;2.50;;;10.50;99.90;;;;;;5093961;28;20031;-82
2022/09/18 04:22:09;;;;;;;3.97;1.60;;;10.50;99.90;;;;;;5094099;28;20036;-82
2022/09/18 04:24:38;;;;;;;4.60;1.63;;;10.50;99.90;;;;;;5095218;28;20086;-81
2022/09/18 04:27:05;;;;;;;8.48;1.70;;;10.50;99.90;;;;;;5094948;28;20027;-83
2022/09/18 04:29:31;;;;;;;2.72;1.52;;;10.60;99.90;;;;;;5094839;28;20030;-80
2022/09/18 04:31:57;;;;;;;5.85;1.70;;;10.50;99.90;;;;;;5094770;28;20027;-82
2022/09/18 04:34:23;;;;;;;2.72;1.23;;;10.50;99.90;;;;;;5094480;28;20032;-82
2022/09/18 04:36:49;;;;;;;7.20;1.33;;;10.60;99.90;;;;;;5092386;28;20035;-83
2022/09/18 04:39:15;;;;;;;4.22;1.42;;;10.50;99.90;;;;;;5093534;28;20036;-83
2022/09/18 04:41:41;;;;;;;2.75;1.27;;;10.60;99.90;;;;;;5094226;28;20044;-81
2022/09/18 04:44:06;;;;;;;4.22;1.52;;;10.50;99.90;;;;;;5095011;28;20030;-81
2022/09/18 04:46:32;;;;;;;9.32;3.50;;;10.60;99.90;;;;;;5093262;28;20385;-85
2022/09/18 04:48:58;;;;;;;12.32;3.35;;;10.50;99.90;;;;;;5094286;28;20024;-84
2022/09/18 04:51:24;;;;;;;7.55;2.33;;;10.60;99.90;;;;;;5094624;28;20036;-81
2022/09/18 04:53:50;;;;;;;4.93;1.67;;;10.60;99.90;;;;;;5094412;28;20036;-81
2022/09/18 04:56:16;;;;;;;4.32;2.60;;;10.50;99.90;;;;;;5102752;28;20489;-82
2022/09/18 04:58:41;;;;;;;7.18;2.95;;;10.50;99.90;;;;;;5094201;28;20425;-81
2022/09/18 05:01:07;;;;;;;5.80;3.00;;;10.50;99.90;;;;;;5094829;28;20024;-80
2022/09/18 05:03:33;;;;;;;4.35;2.20;;;10.50;99.90;;;;;;5094105;28;20024;-81
2022/09/18 05:05:59;;;;;;;5.30;2.30;;;10.50;99.90;;;;;;5093794;28;20035;-82
2022/09/18 05:08:27;;;;;;;16.25;3.92;;;10.50;99.90;;;;;;5094193;28;20099;-83
2022/09/18 05:10:52;;;;;;;14.55;3.03;;;10.50;99.90;;;;;;5089495;28;20031;-84
2022/09/18 05:13:18;;;;;;;7.25;2.35;;;10.50;99.90;;;;;;5094565;28;20028;-82
2022/09/18 05:15:44;;;;;;;9.77;3.63;;;10.50;99.90;;;;;;5093565;28;20036;-82
2022/09/18 05:18:11;;;;;;;9.73;2.80;;;10.50;99.90;;;;;;5094209;28;20032;-81
2022/09/18 05:20:37;;;;;;;12.05;3.47;;;10.60;99.90;;;;;;5094280;28;20023;-80
2022/09/18 05:23:04;;;;;;;7.00;3.45;;;10.60;99.90;;;;;;5093510;28;20047;-82
2022/09/18 05:25:31;;;;;;;13.57;9.13;;;10.60;99.90;;;;;;5093699;28;20483;-80
2022/09/18 05:28:01;;;;;;;8.98;3.58;;;10.70;99.90;;;;;;5093328;28;20522;-81
2022/09/18 05:30:28;;;;;;;10.88;5.47;;;10.70;99.90;;;;;;5093790;28;20031;-81
2022/09/18 05:33:03;;;;;;;18.60;12.15;;;10.80;99.90;;;;;;5093803;28;20031;-78
2022/09/18 05:35:31;;;;;;;8.65;4.13;;;10.80;99.90;;;;;;5088996;28;20360;-79
2022/09/18 05:37:57;;;;;;;8.18;2.90;;;10.80;99.90;;;;;;5093680;28;20020;-81
2022/09/18 05:40:30;;;;;;;4.63;2.42;;;10.90;99.90;;;;;;5093398;28;20109;-78
2022/09/18 05:42:56;;;;;;;6.65;3.33;;;10.90;99.90;;;;;;5092443;28;20024;-82
2022/09/18 05:45:22;;;;;;;6.10;3.80;;;11.00;99.90;;;;;;5093751;28;20035;-79
2022/09/18 05:47:56;;;;;;;5.07;3.45;;;11.00;99.90;;;;;;5093387;28;20107;-79
2022/09/18 05:50:24;;;;;;;5.22;3.00;;;11.10;99.90;;;;;;5093298;28;20082;-79
2022/09/18 05:53:03;;;;;;;6.25;2.58;;;11.20;99.90;;;;;;5093001;28;20137;-79
2022/09/18 05:55:31;;;;;;;6.10;2.80;;;11.20;99.90;;;;;;5095535;28;20444;-80
2022/09/18 05:57:58;;;;;;;4.82;2.70;;;11.30;99.90;;;;;;5093026;28;20028;-80
2022/09/18 06:00:25;;;;;;;6.78;2.63;;;11.40;99.90;;;;;;5093352;28;20039;-81
2022/09/18 06:02:52;;;;;;;6.60;2.50;;;11.50;99.90;;;;;;5092991;28;20024;-81
2022/09/18 06:05:18;;;;;;;4.07;2.38;;;11.60;99.90;;;;;;5093428;28;20028;-78
2022/09/18 06:07:43;;;;;;;5.82;2.53;;;11.70;99.90;;;;;;5096188;28;20144;-79
2022/09/18 06:10:09;;;;;;;8.75;2.30;;;11.80;99.90;;;;;;5091841;28;20028;-80
2022/09/18 06:12:35;;;;;;;6.07;2.72;;;11.90;99.90;;;;;;5095453;28;20060;-82
2022/09/18 06:15:01;;;;;;;8.43;3.53;;;12.00;99.90;;;;;;5092922;28;20024;-81
2022/09/18 06:17:26;;;;;;;5.57;3.47;;;12.10;99.90;;;;;;5093009;28;20036;-79
2022/09/18 06:19:52;;;;;;;10.55;4.63;;;12.20;99.90;;;;;;5093115;28;20024;-82
2022/09/18 06:22:18;;;;;;;29.27;10.00;;;12.30;99.90;;;;;;5092770;28;20036;-79
2022/09/18 06:24:44;;;;;;;40.97;12.10;;;12.40;99.90;;;;;;5091838;28;20074;-82
2022/09/18 06:27:10;;;;;;;6.25;3.17;;;12.60;99.90;;;;;;5093221;28;20044;-81
2022/09/18 06:29:35;;;;;;;5.22;2.65;;;12.60;99.90;;;;;;5092989;28;20107;-80
2022/09/18 06:32:01;;;;;;;9.55;2.85;;;12.80;99.90;;;;;;5093372;28;20028;-79
2022/09/18 06:34:27;;;;;;;3.70;2.20;;;12.90;99.90;;;;;;5091906;28;20475;-78
2022/09/18 06:36:53;;;;;;;7.45;2.90;;;13.00;99.90;;;;;;5092853;28;20490;-80
2022/09/18 06:39:18;;;;;;;7.65;2.15;;;13.10;99.90;;;;;;5091848;28;20024;-80
2022/09/18 06:41:44;;;;;;;4.85;1.70;;;13.20;99.90;;;;;;5090637;28;20079;-81
2022/09/18 06:44:10;;;;;;;4.72;1.50;;;13.40;99.90;;;;;;5092375;28;20028;-81
2022/09/18 06:46:36;;;;;;;4.55;1.80;;;13.40;99.90;;;;;;5091323;28;20032;-80
2022/09/18 06:49:03;;;;;;;5.57;1.90;;;13.60;99.90;;;;;;5092925;28;20027;-80
2022/09/18 06:51:29;;;;;;;5.22;1.92;;;13.70;99.90;;;;;;5096308;28;20533;-78
2022/09/18 06:53:54;;;;;;;9.88;2.60;;;13.90;99.90;;;;;;5090651;28;20055;-80
2022/09/18 06:56:20;;;;;;;4.13;1.88;;;14.00;99.90;;;;;;5092657;28;20052;-78
2022/09/18 06:58:46;;;;;;;2.60;1.42;;;14.20;99.90;;;;;;5092064;28;20455;-79
2022/09/18 07:01:11;;;;;;;6.70;2.42;;;14.30;99.90;;;;;;5095091;28;20062;-80
2022/09/18 07:03:37;;;;;;;3.25;1.35;;;14.50;99.90;;;;;;5095378;28;20025;-81
2022/09/18 07:06:03;;;;;;;5.05;1.70;;;14.50;99.90;;;;;;5095471;28;20386;-80
2022/09/18 07:08:29;;;;;;;3.70;1.63;;;14.60;99.90;;;;;;5096499;28;20029;-80
2022/09/18 07:11:00;;;;;;;3.45;1.10;;;14.70;99.90;;;;;;5095334;28;20119;-79
2022/09/18 07:13:30;;;;;;;4.10;1.63;;;14.80;99.90;;;;;;5095075;28;20459;-79
2022/09/18 07:15:56;;;;;;;2.42;0.93;;;14.90;99.90;;;;;;5096214;28;20028;-79
2022/09/18 07:18:23;;;;;;;2.63;1.00;;;15.00;99.90;;;;;;5104703;28;20054;-80
2022/09/18 07:20:49;;;;;;;3.53;1.50;;;15.10;99.90;;;;;;5096929;28;20020;-81
2022/09/18 07:23:15;;;;;;;3.90;1.10;;;15.20;99.90;;;;;;5096919;28;20519;-81
2022/09/18 07:25:41;;;;;;;3.30;1.50;;;15.30;99.90;;;;;;5096703;28;20032;-80
2022/09/18 07:28:09;;;;;;;7.57;3.13;;;15.30;99.90;;;;;;5112542;28;20470;-80
2022/09/18 07:30:36;;;;;;;1.83;1.20;;;15.50;99.90;;;;;;5096835;28;20051;-82
2022/09/18 07:33:03;;;;;;;2.97;1.50;;;15.50;99.90;;;;;;5111561;28;20028;-82
2022/09/18 07:35:31;;;;;;;3.78;1.88;;;15.50;99.80;;;;;;5095178;28;20542;-81
2022/09/18 07:38:02;;;;;;;2.45;1.40;;;15.60;99.90;;;;;;5082456;28;20429;-80
2022/09/18 07:40:28;;;;;;;3.65;1.33;;;15.70;99.90;;;;;;5096093;28;20054;-81
2022/09/18 07:43:06;;;;;;;6.35;1.48;;;15.80;98.00;;;;;;5087433;28;20362;-81
2022/09/18 07:45:32;;;;;;;3.92;1.60;;;15.90;99.90;;;;;;5072525;28;20361;-79
2022/09/18 07:48:04;;;;;;;4.25;1.92;;;16.00;99.60;;;;;;5074742;28;20035;-82
2022/09/18 07:50:30;;;;;;;6.85;3.28;;;16.10;99.90;;;;;;5077555;28;20629;-81
2022/09/18 07:52:58;;;;;;;5.63;2.75;;;16.20;99.90;;;;;;5084255;28;20031;-82
2022/09/18 07:55:25;;;;;;;6.28;2.50;;;16.30;96.40;;;;;;5088710;28;20040;-81
2022/09/18 07:57:59;;;;;;;3.25;1.67;;;16.40;94.90;;;;;;5095296;28;20382;-80
2022/09/18 08:00:26;;;;;;;11.45;10.40;;;16.50;94.90;;;;;;5095534;28;20486;-82
2022/09/18 08:03:05;;;;;;;4.28;1.60;;;16.70;93.60;;;;;;5096470;28;20106;-80
2022/09/18 08:05:31;;;;;;;3.35;2.25;;;16.60;90.50;;;;;;5088946;28;20031;-81
2022/09/18 08:08:14;;;;;;;6.13;4.43;;;16.70;91.30;;;;;;5089129;28;20036;-82
2022/09/18 08:10:42;;;;;;;7.82;2.08;;;16.70;91.30;;;;;;5091267;28;20466;-80
2022/09/18 08:13:08;;;;;;;7.63;5.22;;;16.80;84.90;;;;;;5095476;28;20026;-79
2022/09/18 08:15:37;;;;;;;5.22;1.90;;;16.80;87.30;;;;;;5094610;28;20036;-79
2022/09/18 08:18:03;;;;;;;7.40;2.05;;;16.90;92.80;;;;;;5095799;28;20479;-79
2022/09/18 08:20:29;;;;;;;3.63;1.42;;;17.00;90.00;;;;;;5095897;28;20067;-80
2022/09/18 08:22:55;;;;;;;3.28;1.75;;;17.10;91.70;;;;;;5093772;28;20525;-80
2022/09/18 08:25:22;;;;;;;5.10;1.85;;;17.10;90.70;;;;;;5095100;28;20071;-79
2022/09/18 08:27:47;;;;;;;3.75;1.20;;;17.30;90.40;;;;;;5103351;28;20024;-80
2022/09/18 08:30:16;;;;;;;6.25;1.30;;;17.30;89.60;;;;;;5094994;28;20467;-78
2022/09/18 08:32:42;;;;;;;5.00;1.77;;;17.20;91.30;;;;;;5095416;28;20023;-78
2022/09/18 08:35:09;;;;;;;3.13;1.20;;;17.40;91.00;;;;;;5095123;28;20088;-80
2022/09/18 08:37:36;;;;;;;2.67;1.27;;;17.20;84.30;;;;;;5098714;28;20054;-82
2022/09/18 08:40:03;;;;;;;6.15;1.35;;;17.40;87.70;;;;;;5093706;28;20069;-82
2022/09/18 08:42:37;;;;;;;8.15;3.70;;;17.20;89.70;;;;;;5094449;28;20024;-78
2022/09/18 08:45:18;;;;;;;2.92;1.27;;;17.30;85.20;;;;;;5095294;28;20031;-79
2022/09/18 08:48:00;;;;;;;2.88;0.98;;;17.70;85.40;;;;;;5095180;28;20036;-82
2022/09/18 08:50:29;;;;;;;3.97;1.02;;;17.80;77.70;;;;;;5094138;28;20020;-81
2022/09/18 08:53:39;;;;;;;3.47;1.60;;;17.80;71.90;;;;;;5093940;28;20024;-81
2022/09/18 08:56:14;;;;;;;3.30;1.10;;;18.00;74.80;;;;;;5095307;28;20035;-80
2022/09/18 08:58:55;;;;;;;2.10;1.20;;;18.00;70.50;;;;;;5095716;28;20076;-80
2022/09/18 09:01:27;;;;;;;1.95;1.00;;;18.10;71.00;;;;;;5095261;28;20466;-79
2022/09/18 09:04:20;;;;;;;2.17;0.85;;;18.30;68.80;;;;;;5095175;28;20032;-80
2022/09/18 09:07:01;;;;;;;2.55;1.20;;;18.30;65.40;;;;;;5094656;28;20044;-79
2022/09/18 09:09:51;;;;;;;10.32;1.35;;;18.50;65.60;;;;;;5095024;28;20023;-80
2022/09/18 09:12:51;;;;;;;3.10;1.10;;;18.60;64.10;;;;;;5089995;28;20032;-79
2022/09/18 09:15:44;;;;;;;2.72;0.93;;;18.60;60.80;;;;;;5093672;28;20034;-80
2022/09/18 09:18:17;;;;;;;1.85;1.00;;;18.60;59.40;;;;;;5094994;28;20091;-80
2022/09/18 09:20:57;;;;;;;6.47;1.88;;;18.70;60.20;;;;;;5093551;28;20036;-81
2022/09/18 09:23:33;;;;;;;2.67;1.23;;;18.80;60.20;;;;;;5094207;28;20027;-80
2022/09/18 09:26:15;;;;;;;5.50;2.22;;;18.90;59.00;;;;;;5094811;28;20059;-81
2022/09/18 09:29:03;;;;;;;3.20;1.77;;;18.90;57.60;;;;;;5093499;28;20113;-81
2022/09/18 09:31:37;;;;;;;3.60;1.25;;;19.10;62.20;;;;;;5093566;28;20032;-76
2022/09/18 09:34:20;;;;;;;7.10;1.20;;;19.10;57.30;;;;;;5093439;28;20024;-78
2022/09/18 09:36:52;;;;;;;2.40;1.40;;;19.20;56.30;;;;;;5094658;28;20068;-80
2022/09/18 09:39:41;;;;;;;2.35;1.55;;;19.30;56.20;;;;;;5094417;28;20441;-79
2022/09/18 09:42:39;;;;;;;3.78;1.52;;;19.20;52.80;;;;;;5094467;28;20043;-80
2022/09/18 09:45:29;;;;;;;6.13;1.75;;;19.40;56.10;;;;;;5085305;28;20074;-80
2022/09/18 09:48:10;;;;;;;7.07;2.00;;;19.50;54.20;;;;;;5094284;28;20090;-81
2022/09/18 09:50:48;;;;;;;2.17;1.20;;;19.60;53.70;;;;;;5094315;28;20374;-80
2022/09/18 09:53:14;;;;;;;2.35;1.67;;;19.50;53.30;;;;;;5094763;28;20020;-82
2022/09/18 09:56:08;;;;;;;1.85;1.23;;;19.70;54.60;;;;;;5094181;28;20099;-82
2022/09/18 09:58:37;;;;;;;3.47;1.40;;;20.00;54.30;;;;;;5071893;28;20268;-79
2022/09/18 10:01:03;;;;;;;3.88;1.90;;;20.10;56.10;;;;;;5093915;28;20028;-79
2022/09/18 10:03:57;;;;;;;3.10;1.80;;;20.30;55.70;;;;;;5092685;28;20031;-80
2022/09/18 10:06:49;;;;;;;4.82;2.20;;;20.40;55.00;;;;;;5074877;28;20040;-81
2022/09/18 10:09:39;;;;;;;3.65;2.70;;;20.50;54.90;;;;;;5073920;28;20487;-78
2022/09/18 10:12:51;;;;;;;4.90;2.10;;;20.50;52.60;;;;;;5073920;28;20039;-79
2022/09/18 10:15:30;;;;;;;2.72;2.35;;;20.60;52.30;;;;;;5015148;28;20065;-81
2022/09/18 10:17:58;;;;;;;2.88;2.13;;;;;;;;;;5031387;28;20118;-80
2022/09/18 10:20:30;;;;;;;3.42;1.88;;;20.90;51.70;;;;;;5031469;28;20091;-80
2022/09/18 10:23:08;;;;;;;2.45;1.67;;;20.90;52.50;;;;;;5015021;28;20042;-82
2022/09/18 10:26:02;;;;;;;3.42;1.73;;;20.50;51.90;;;;;;5031318;28;20060;-82
2022/09/18 10:28:28;;;;;;;1.85;1.20;;;20.70;50.60;;;;;;5015100;28;20116;-80
2022/09/18 10:31:05;;;;;;;2.00;1.10;;;20.80;49.30;;;;;;5031381;28;20037;-81
2022/09/18 10:33:37;;;;;;;2.67;1.98;;;20.80;50.30;;;;;;5046715;28;20112;-79
2022/09/18 10:36:36;;;;;;;2.22;1.15;;;21.00;49.80;;;;;;5036610;28;20124;-80
2022/09/18 10:39:18;;;;;;;2.83;1.60;;;;;;;;;;5035767;28;20033;-79
2022/09/18 10:41:44;;;;;;;;;;;21.20;47.60;;;;;;5055319;28;20064;-79
2022/09/18 10:44:24;;;;;;;2.58;1.52;;;21.40;48.50;;;;;;5055344;28;19908;-80
2022/09/18 10:46:51;;;;;;;3.70;3.00;;;21.50;48.30;;;;;;5055373;28;20037;-81
2022/09/18 10:49:22;;;;;;;3.67;3.10;;;21.20;45.50;;;;;;5067232;28;20495;-82
2022/09/18 10:52:08;;;;;;;3.88;1.40;;;21.50;49.60;;;;;;5097713;28;20024;-82
2022/09/18 10:54:35;;;;;;;2.42;1.67;;;;;;;;;;5097553;28;20032;-80
2022/09/18 10:57:47;;;;;;;7.63;3.65;;;21.80;46.60;;;;;;5097396;28;20025;-82
2022/09/18 11:00:19;;;;;;;2.25;1.70;;;21.60;43.10;;;;;;5096484;28;20028;-80
2022/09/18 11:02:47;;;;;;;;;;;21.50;43.90;;;;;;5098246;28;20028;-82
2022/09/18 11:05:18;;;;;;;3.60;2.67;;;21.50;43.50;;;;;;5097278;28;19908;-81
2022/09/18 11:07:53;;;;;;;2.95;1.77;;;21.50;45.50;;;;;;5097344;28;20024;-81
2022/09/18 11:10:22;;;;;;;7.07;1.50;;;21.10;44.30;;;;;;5096195;28;20036;-83
2022/09/18 11:12:57;;;;;;;2.22;1.60;;;21.20;45.70;;;;;;5095568;28;20028;-81
2022/09/18 11:15:27;;;;;;;1.33;1.23;;;21.30;48.40;;;;;;5097114;28;20028;-83
2022/09/18 11:17:56;;;;;;;3.03;1.73;;;21.50;46.00;;;;;;5097302;28;20047;-80
2022/09/18 11:20:31;;;;;;;1.10;1.00;;;21.80;45.40;;;;;;5096005;28;20020;-83
2022/09/18 11:23:32;;;;;;;1.73;0.77;;;22.00;43.40;;;;;;5096396;28;20023;-83
2022/09/18 11:26:25;;;;;;;4.95;3.42;;;22.10;44.30;;;;;;5096298;28;20425;-81
2022/09/18 11:29:17;;;;;;;2.78;1.90;;;22.10;43.30;;;;;;5095322;28;20078;-84
2022/09/18 11:31:49;;;;;;;5.90;2.08;;;22.20;45.30;;;;;;5093458;28;20109;-82
2022/09/18 11:34:29;;;;;;;3.42;3.13;;;22.30;43.60;;;;;;5094792;28;20036;-82
2022/09/18 11:37:00;;;;;;;3.30;2.45;;;22.30;44.70;;;;;;5094839;28;20039;-81
2022/09/18 11:39:32;;;;;;;2.00;1.80;;;22.50;45.70;;;;;;5095935;28;20024;-84
2022/09/18 11:41:58;;;;;;;6.88;4.93;;;22.30;42.00;;;;;;5096079;28;20028;-82
2022/09/18 11:44:27;;;;;;;4.43;2.10;;;22.40;41.60;;;;;;5095941;28;20028;-82
2022/09/18 11:47:21;;;;;;;2.38;2.17;;;21.90;41.50;;;;;;5094470;28;20454;-82
2022/09/18 11:50:11;;;;;;;3.67;1.83;;;21.70;41.00;;;;;;5095979;28;20101;-82
2022/09/18 11:52:47;;;;;;;3.60;1.83;;;21.60;39.30;;;;;;5095341;28;20036;-81
2022/09/18 11:55:34;;;;;;;3.95;2.10;;;22.00;40.20;;;;;;5094968;28;20351;-81
2022/09/18 11:58:08;;;;;;;1.73;1.60;;;22.30;37.60;;;;;;5094378;28;20031;-84
2022/09/18 12:00:45;;;;;;;2.83;1.90;;;22.50;37.80;;;;;;5090785;28;20459;-83
2022/09/18 12:03:21;;;;;;;5.72;3.03;;;;;;;;;;5093805;28;20459;-83
2022/09/18 12:06:14;;;;;;;2.25;2.05;;;22.80;35.70;;;;;;5094828;28;20085;-81
2022/09/18 12:08:52;;;;;;;1.40;1.25;;;22.30;36.20;;;;;;5097266;28;20039;-82
2022/09/18 12:11:18;;;;;;;3.10;1.60;;;22.30;36.30;;;;;;5095403;28;20054;-82
2022/09/18 12:13:58;;;;;;;2.63;1.95;;;22.60;38.30;;;;;;5095597;28;20025;-82
2022/09/18 12:16:42;;;;;;;2.38;2.17;;;22.70;37.60;;;;;;5094077;28;20571;-83
2022/09/18 12:19:32;;;;;;;2.95;1.60;;;22.60;38.10;;;;;;5095512;28;20026;-82
2022/09/18 12:22:13;;;;;;;3.22;2.58;;;22.90;38.60;;;;;;5094201;28;20101;-81
2022/09/18 12:24:39;;;;;;;;;;;23.00;38.20;;;;;;5095485;28;20474;-82
2022/09/18 12:27:20;;;;;;;2.60;1.73;;;22.80;38.70;;;;;;5095079;28;19912;-83
2022/09/18 12:30:02;;;;;;;2.40;1.73;;;22.10;39.30;;;;;;5095470;28;20028;-82
2022/09/18 12:32:33;;;;;;;3.15;1.70;;;21.20;39.40;;;;;;5095232;28;20518;-81
2022/09/18 12:35:05;;;;;;;3.70;1.65;;;20.90;40.00;;;;;;5093902;28;20169;-81
2022/09/18 12:38:01;;;;;;;1.38;1.27;;;21.20;40.50;;;;;;5083660;28;20029;-82
2022/09/18 12:40:46;;;;;;;3.47;3.17;;;21.40;40.40;;;;;;5074443;28;20048;-82
2022/09/18 12:43:56;;;;;;;2.78;2.08;;;22.00;38.20;;;;;;5092203;28;20509;-82
2022/09/18 12:46:54;;;;;;;1.90;1.70;;;22.30;38.70;;;;;;5098915;28;20052;-82
2022/09/18 12:49:49;;;;;;;1.67;1.33;;;22.40;38.50;;;;;;5094408;28;20028;-83
2022/09/18 12:52:41;;;;;;;1.48;1.25;;;22.10;35.10;;;;;;5095074;28;20032;-81
2022/09/18 12:55:25;;;;;;;2.03;1.30;;;21.20;36.30;;;;;;5095295;28;20546;-83
2022/09/18 12:58:20;;;;;;;2.55;1.65;;;21.20;38.60;;;;;;5094453;28;20039;-81
2022/09/18 13:00:49;;;;;;;1.50;1.40;;;21.30;36.70;;;;;;5073510;28;20066;-83
2022/09/18 13:03:32;;;;;;;2.55;1.55;;;21.90;37.50;;;;;;5096109;28;20024;-82
2022/09/18 13:06:05;;;;;;;1.70;1.60;;;22.10;37.80;;;;;;5093896;28;20081;-83
2022/09/18 13:08:55;;;;;;;1.38;1.23;;;22.40;37.50;;;;;;5094919;28;20507;-83
2022/09/18 13:11:41;;;;;;;1.42;1.33;;;22.50;35.60;;;;;;5092841;28;20028;-83
2022/09/18 13:14:12;;;;;;;2.42;2.08;;;;;;;;;;5093442;28;20036;-81
2022/09/18 13:16:58;;;;;;;1.13;0.70;;;22.60;34.80;;;;;;5094219;28;20028;-82
2022/09/18 13:19:32;;;;;;;2.58;0.75;;;22.60;35.20;;;;;;5094520;28;20115;-82